Aom Milena — 3FDD2 — position and weather

sailwx.info

Track history (hours):
 
Tides and Currents Weather Stations Pressure Air Temp Water Temp Dewpoint Dewpoint Depression Visibility Wind Speed Wind Dir Waves Ship Positions

Aom Milena

Last reported at 2017-Oct-15 06:51 UTC. Time now 2017-Oct-19 11:26 UTC.
Position N 49°43' W 007°43'.

Length 218 m; draft 6.2 m.

Type: Cargo ship. MMSI: 353613000.

Date/timePositionNaut miles runAvg speedWind from/ knotsBaromVisibWave heightAir tempDewpointWater temp
2017-Oct-15 06:51N 49°43' W 007°43'912.4
2017-Oct-15 06:06N 49°43' W 007°29'112.3
2017-Oct-15 06:00N 49°43' W 007°27'612.3
2017-Oct-15 05:30N 49°43' W 007°18'612.0
2017-Oct-15 05:00N 49°43' W 007°09'612.0
2017-Oct-15 04:29N 49°43' W 006°59'612.0
2017-Oct-15 03:57N 49°43' W 006°49'511.7
2017-Oct-15 03:30N 49°43' W 006°41'611.8
2017-Oct-15 03:00N 49°43' W 006°32'611.5
2017-Oct-15 02:30N 49°43' W 006°23'611.3
2017-Oct-15 02:00N 49°43' W 006°14'611.2
2017-Oct-15 01:30N 49°43' W 006°05'611.3
2017-Oct-15 01:00N 49°44' W 005°57'611.3
2017-Oct-15 00:30N 49°45' W 005°48'611.7
2017-Oct-15 00:00N 49°46' W 005°39'611.7
2017-Oct-14 23:30N 49°47' W 005°30'611.7
2017-Oct-14 23:00N 49°48' W 005°22'612.1
2017-Oct-14 22:30N 49°49' W 005°12'612.3
2017-Oct-14 22:00N 49°51' W 005°03'612.5
2017-Oct-14 21:30N 49°52' W 004°54'612.8
2017-Oct-14 21:00N 49°53' W 004°44'713.1
2017-Oct-14 20:30N 49°55' W 004°34'713.2
2017-Oct-14 20:00N 49°56' W 004°24'713.4
2017-Oct-14 19:30N 49°58' W 004°14'713.4
2017-Oct-14 19:00N 49°59' W 004°04'713.5
2017-Oct-14 18:30N 50°00' W 003°53'713.3
2017-Oct-14 18:00N 50°02' W 003°43'713.0
2017-Oct-14 17:30N 50°03' W 003°33'612.8
2017-Oct-14 17:00N 50°04' W 003°24'612.4
2017-Oct-14 16:30N 50°06' W 003°14'612.1
2017-Oct-14 16:00N 50°07' W 003°05'611.8
2017-Oct-14 15:30N 50°08' W 002°56'611.7
2017-Oct-14 15:00N 50°09' W 002°47'611.6
2017-Oct-14 14:30N 50°11' W 002°38'611.6
2017-Oct-14 14:00N 50°12' W 002°29'611.7
2017-Oct-14 13:30N 50°13' W 002°21'611.9
2017-Oct-14 13:00N 50°15' W 002°12'812.2
2017-Oct-14 12:21N 50°16' W 001°59'412.7
2017-Oct-14 12:00N 50°17' W 001°52'713.1
2017-Oct-14 11:30N 50°18' W 001°42'713.6
2017-Oct-14 11:00N 50°20' W 001°32'714.1
2017-Oct-14 10:30N 50°21' W 001°21'714.5
2017-Oct-14 10:00N 50°23' W 001°10'714.6
2017-Oct-14 09:30N 50°24' W 000°59'714.6
2017-Oct-14 09:00N 50°26' W 000°48'714.3
2017-Oct-14 08:30N 50°27' W 000°37'714.1
2017-Oct-14 08:00N 50°29' W 000°26'713.8
2017-Oct-14 07:30N 50°30' W 000°15'713.6
2017-Oct-14 07:01N 50°32' W 000°05'713.2
2017-Oct-14 06:30N 50°33' E 000°05'713.2
2017-Oct-14 06:00N 50°34' E 000°15'612.8
2017-Oct-14 05:30N 50°36' E 000°25'612.5
2017-Oct-14 05:01N 50°37' E 000°35'612.2
2017-Oct-14 04:31N 50°41' E 000°43'612.4
2017-Oct-14 04:00N 50°44' E 000°51'612.6
2017-Oct-14 03:31N 50°48' E 000°58'713.0
2017-Oct-14 03:00N 50°52' E 001°06'713.5
2017-Oct-14 02:30N 50°57' E 001°15'714.4
2017-Oct-14 02:00N 51°02' E 001°23'714.8
2017-Oct-14 01:31N 51°06' E 001°32'714.6
2017-Oct-14 01:00N 51°11' E 001°40'713.8
2017-Oct-14 00:31N 51°17' E 001°47'713.3
2017-Oct-14 00:01N 51°22' E 001°52'612.7
2017-Oct-13 23:31N 51°28' E 001°58'612.3
2017-Oct-13 23:00N 51°33' E 002°04'611.9
2017-Oct-13 22:30N 51°37' E 002°10'611.7
2017-Oct-13 22:01N 51°42' E 002°16'611.4
2017-Oct-13 21:31N 51°46' E 002°22'611.1
2017-Oct-13 20:59N 51°50' E 002°29'610.8
2017-Oct-13 20:26N 51°54' E 002°36'510.7
2017-Oct-13 20:00N 51°58' E 002°40'510.6
2017-Oct-13 19:30N 52°02' E 002°46'610.8
2017-Oct-13 18:59N 52°06' E 002°52'610.8
2017-Oct-13 18:28N 52°10' E 002°58'611.1
2017-Oct-13 17:57N 52°15' E 003°04'511.6
2017-Oct-13 17:29N 52°19' E 003°09'611.9
2017-Oct-13 17:00N 52°24' E 003°14'711.3
2017-Oct-13 16:23N 52°29' E 003°22'512.3
2017-Oct-13 16:00N 52°30' E 003°30'712.3
2017-Oct-13 15:29N 52°31' E 003°41'612.3
2017-Oct-13 15:01N 52°31' E 003°50'612.4
2017-Oct-13 14:30N 52°31' E 004°00'612.2
2017-Oct-13 14:01N 52°31' E 004°10'612.3
2017-Oct-13 13:31N 52°30' E 004°20'5 9.1
2017-Oct-13 13:01N 52°28' E 004°27'4 8.5
2017-Oct-13 12:31N 52°28' E 004°34'2 3.2
2017-Oct-13 12:01N 52°28' E 004°37'1 2.1
2017-Oct-13 11:30N 52°28' E 004°38'3 6.5
2017-Oct-13 11:00N 52°26' E 004°43'3 6.5
2017-Oct-13 10:30N 52°25' E 004°48'3 5.9
2017-Oct-13 10:00N 52°24' E 004°53'0 0.5
2017-Oct-13 09:30N 52°24' E 004°53'0 0.0
2017-Oct-13 09:00N 52°24' E 004°53'0 0.0
2017-Oct-13 08:30N 52°24' E 004°53'0 0.0
2017-Oct-13 08:00N 52°24' E 004°53'0 0.0
2017-Oct-13 07:30N 52°24' E 004°53'0 0.0
2017-Oct-13 07:00N 52°24' E 004°53'0 0.0
2017-Oct-13 06:30N 52°24' E 004°53'0 0.0
2017-Oct-13 06:00N 52°24' E 004°53'0 0.0
2017-Oct-13 05:30N 52°24' E 004°53'0 0.0
2017-Oct-13 05:00N 52°24' E 004°53'0 0.0
2017-Oct-13 04:30N 52°24' E 004°53'0 0.0
2017-Oct-13 04:00N 52°24' E 004°53'0 0.0
2017-Oct-13 03:30N 52°24' E 004°53'0 0.0
2017-Oct-13 03:00N 52°24' E 004°53'0 0.0
2017-Oct-13 02:30N 52°24' E 004°53'0 0.0
2017-Oct-13 02:00N 52°24' E 004°53'0 0.0
2017-Oct-13 01:30N 52°24' E 004°53'0 0.0
2017-Oct-13 01:00N 52°24' E 004°53'0 0.0
2017-Oct-13 00:30N 52°24' E 004°53'0 0.0
2017-Oct-13 00:00N 52°24' E 004°53'0 0.0
2017-Oct-12 23:30N 52°24' E 004°53'0 0.0
2017-Oct-12 23:00N 52°24' E 004°53'0 0.0
2017-Oct-12 22:30N 52°24' E 004°53'0 0.0
2017-Oct-12 22:00N 52°24' E 004°53'0 0.0
2017-Oct-12 21:30N 52°24' E 004°53'0 0.0
2017-Oct-12 21:00N 52°24' E 004°53'0 0.0
2017-Oct-12 20:30N 52°24' E 004°53'0 0.0
2017-Oct-12 20:00N 52°24' E 004°53'0 0.0
2017-Oct-12 19:30N 52°24' E 004°53'0 0.0
2017-Oct-12 19:00N 52°24' E 004°53'0 0.0
2017-Oct-12 18:30N 52°24' E 004°53'0 0.0
2017-Oct-12 17:30N 52°24' E 004°53'0 0.0
2017-Oct-12 17:00N 52°24' E 004°53'0 0.0
2017-Oct-12 16:30N 52°24' E 004°53'0 0.0
2017-Oct-12 16:00N 52°24' E 004°53'0 0.0
2017-Oct-12 15:30N 52°24' E 004°53'0 0.0
2017-Oct-12 15:00N 52°24' E 004°53'0 0.0
2017-Oct-12 14:30N 52°24' E 004°53'0 0.0
2017-Oct-12 14:00N 52°24' E 004°53'0 0.0
2017-Oct-12 13:30N 52°24' E 004°53'0 0.0
2017-Oct-12 13:00N 52°24' E 004°53'0 0.0
2017-Oct-12 12:30N 52°24' E 004°53'0 0.0
2017-Oct-12 12:00N 52°24' E 004°53'0 0.0
2017-Oct-12 11:30N 52°24' E 004°53'0 0.0
2017-Oct-12 11:00N 52°24' E 004°53'0 0.0
2017-Oct-12 10:30N 52°24' E 004°53'0 0.0
2017-Oct-12 10:00N 52°24' E 004°53'0 0.0
2017-Oct-12 09:30N 52°24' E 004°53'0 0.0
2017-Oct-12 09:00N 52°24' E 004°53'0 0.0
2017-Oct-12 08:27N 52°24' E 004°53'0 0.0
2017-Oct-12 08:00N 52°24' E 004°53'0 0.0
2017-Oct-12 07:30N 52°24' E 004°53'0 0.0
2017-Oct-12 07:00N 52°24' E 004°53'0 0.0
2017-Oct-12 06:30N 52°24' E 004°53'0 0.0
2017-Oct-12 06:00N 52°24' E 004°53'0 0.0
2017-Oct-12 05:30N 52°24' E 004°53'0 0.0
2017-Oct-12 05:00N 52°24' E 004°53'0 0.0
2017-Oct-12 04:00N 52°24' E 004°53'0 0.0
2017-Oct-12 03:30N 52°24' E 004°53'0 0.0
2017-Oct-12 03:00N 52°24' E 004°53'0 0.0
2017-Oct-12 02:30N 52°24' E 004°53'0 0.0
2017-Oct-12 02:00N 52°24' E 004°53'0 0.0
2017-Oct-12 01:30N 52°24' E 004°53'0 0.0
2017-Oct-12 01:00N 52°24' E 004°53'0 0.0
2017-Oct-12 00:30N 52°24' E 004°53'0 0.0
2017-Oct-12 00:00N 52°24' E 004°53'0 0.0
2017-Oct-11 23:30N 52°24' E 004°53'0 0.0
2017-Oct-11 23:00N 52°24' E 004°53'0 0.0
2017-Oct-11 22:30N 52°24' E 004°53'0 0.0
2017-Oct-11 22:00N 52°24' E 004°53'0 0.0
2017-Oct-11 21:30N 52°24' E 004°53'0 0.0
2017-Oct-11 21:00N 52°24' E 004°53'0 0.0
2017-Oct-11 20:30N 52°24' E 004°53'0 0.0
2017-Oct-11 20:00N 52°24' E 004°53'0 0.0
2017-Oct-11 19:30N 52°24' E 004°53'0 0.0
2017-Oct-11 19:00N 52°24' E 004°53'0 0.0
2017-Oct-11 18:30N 52°24' E 004°53'0 0.0
2017-Oct-11 18:00N 52°24' E 004°53'0 0.0
2017-Oct-11 17:30N 52°24' E 004°53'0 0.0
2017-Oct-11 17:00N 52°24' E 004°53'0 0.0
2017-Oct-11 00:00N 52°24' E 004°53'0 0.0
2017-Oct-10 23:30N 52°24' E 004°53'0 0.0
2017-Oct-10 23:00N 52°24' E 004°53'0 0.0
2017-Oct-10 22:30N 52°24' E 004°53'0 0.0
2017-Oct-10 22:00N 52°24' E 004°53'0 0.0
2017-Oct-10 21:30N 52°24' E 004°53'0 0.0
2017-Oct-10 21:00N 52°24' E 004°53'0 0.0
2017-Oct-10 20:30N 52°24' E 004°53'0 0.0
2017-Oct-10 20:00N 52°24' E 004°53'0 0.0
2017-Oct-10 19:30N 52°24' E 004°53'0 0.0
2017-Oct-10 19:00N 52°24' E 004°53'0 0.0
2017-Oct-10 18:30N 52°24' E 004°53'0 0.0
2017-Oct-10 18:00N 52°24' E 004°53'0 0.0
2017-Oct-10 17:30N 52°24' E 004°53'0 0.0
2017-Oct-10 17:00N 52°24' E 004°53'0 0.0
2017-Oct-10 16:30N 52°24' E 004°53'0 0.0
2017-Oct-10 16:00N 52°24' E 004°53'0 0.0
2017-Oct-10 15:30N 52°24' E 004°53'0 0.0
2017-Oct-10 15:00N 52°24' E 004°53'0 0.0
2017-Oct-10 14:00N 52°24' E 004°53'0 0.0
2017-Oct-10 13:30N 52°24' E 004°53'0 0.0
2017-Oct-10 13:00N 52°24' E 004°53'0 0.0
2017-Oct-10 12:30N 52°24' E 004°53'0 0.0
2017-Oct-10 12:00N 52°24' E 004°53'0 0.0
2017-Oct-10 11:30N 52°24' E 004°53'0 0.0
2017-Oct-10 11:00N 52°24' E 004°53'0 0.0
2017-Oct-10 10:30N 52°24' E 004°53'0 0.0
2017-Oct-10 10:00N 52°24' E 004°53'0 0.0
2017-Oct-10 09:30N 52°24' E 004°53'0 0.0
2017-Oct-10 09:00N 52°24' E 004°53'0 0.0
2017-Oct-10 08:30N 52°24' E 004°53'0 0.0
2017-Oct-10 08:00N 52°24' E 004°53'0 0.0
2017-Oct-10 07:30N 52°24' E 004°53'0 0.0
2017-Oct-10 07:00N 52°24' E 004°53'0 0.0
2017-Oct-10 06:30N 52°24' E 004°53'0 0.0
2017-Oct-10 06:00N 52°24' E 004°53'0 0.0
2017-Oct-10 05:30N 52°24' E 004°53'0 0.0
2017-Oct-10 05:00N 52°24' E 004°53'0 0.0
2017-Oct-10 04:30N 52°24' E 004°53'0 0.0
2017-Oct-10 04:00N 52°24' E 004°53'0 0.0
2017-Oct-10 03:30N 52°24' E 004°53'0 0.0
2017-Oct-10 03:00N 52°24' E 004°53'0 0.0
2017-Oct-10 02:30N 52°24' E 004°53'0 0.0
2017-Oct-10 02:00N 52°24' E 004°53'0 0.0
2017-Oct-10 01:30N 52°24' E 004°53'0 0.0
2017-Oct-10 01:00N 52°24' E 004°53'0 0.0
2017-Oct-10 00:30N 52°24' E 004°53'0 0.0
2017-Oct-10 00:00N 52°24' E 004°53'0 0.0
2017-Oct-09 23:30N 52°24' E 004°53'0 0.0
2017-Oct-09 23:00N 52°24' E 004°53'0 0.0
2017-Oct-09 22:30N 52°24' E 004°53'0 0.0
2017-Oct-09 22:00N 52°24' E 004°53'0 0.0
2017-Oct-09 21:00N 52°24' E 004°53'0 0.0
2017-Oct-09 20:30N 52°24' E 004°53'0 0.0
2017-Oct-09 20:00N 52°24' E 004°53'0 0.0
2017-Oct-09 19:30N 52°24' E 004°53'0 0.0
2017-Oct-09 19:00N 52°24' E 004°53'0 0.0
2017-Oct-09 18:30N 52°24' E 004°53'0 0.0
2017-Oct-09 18:00N 52°24' E 004°53'0 0.0
2017-Oct-09 17:30N 52°24' E 004°53'0 0.0
2017-Oct-09 17:00N 52°24' E 004°53'0 0.0
2017-Oct-09 16:30N 52°24' E 004°53'0 0.0
2017-Oct-09 16:00N 52°24' E 004°53'0 0.0
2017-Oct-09 15:30N 52°24' E 004°53'0 0.0
2017-Oct-09 15:00N 52°24' E 004°53'0 0.0
2017-Oct-09 14:30N 52°24' E 004°53'0 0.0
2017-Oct-09 14:00N 52°24' E 004°53'0 0.0
2017-Oct-09 13:30N 52°24' E 004°53'0 0.0
2017-Oct-09 13:00N 52°24' E 004°53'0 0.0
2017-Oct-09 12:30N 52°24' E 004°53'0 0.0
2017-Oct-09 12:00N 52°24' E 004°53'0 0.0
2017-Oct-09 11:30N 52°24' E 004°53'0 0.0
2017-Oct-09 10:57N 52°24' E 004°53'0 0.0
2017-Oct-09 10:30N 52°24' E 004°53'0 0.0
2017-Oct-09 10:00N 52°24' E 004°53'0 0.0
2017-Oct-09 09:30N 52°24' E 004°53'0 0.0
2017-Oct-09 09:00N 52°24' E 004°53'0 0.0
2017-Oct-09 08:30N 52°24' E 004°53'0 0.0
2017-Oct-09 08:00N 52°24' E 004°53'0 0.0
2017-Oct-09 07:30N 52°24' E 004°53'0 0.0
2017-Oct-09 07:00N 52°24' E 004°53'0 0.0
2017-Oct-09 06:30N 52°24' E 004°53'0 0.0
2017-Oct-09 06:00N 52°24' E 004°53'0 0.0
2017-Oct-09 05:30N 52°24' E 004°53'0 0.0
2017-Oct-09 05:00N 52°24' E 004°53'0 0.0
2017-Oct-09 04:30N 52°24' E 004°53'0 0.0
2017-Oct-09 04:00N 52°24' E 004°53'0 0.0
2017-Oct-09 03:30N 52°24' E 004°53'0 0.0
2017-Oct-09 03:00N 52°24' E 004°53'0 0.0
2017-Oct-09 02:30N 52°24' E 004°53'0 0.0
2017-Oct-09 02:00N 52°24' E 004°53'0 0.0
2017-Oct-09 01:30N 52°24' E 004°53'0 0.0
2017-Oct-09 01:00N 52°24' E 004°53'0 0.0
2017-Oct-09 00:30N 52°24' E 004°53'0 0.0
2017-Oct-09 00:00N 52°24' E 004°53'0 0.0
2017-Oct-08 23:30N 52°24' E 004°53'0 0.0
2017-Oct-08 23:00N 52°24' E 004°53'0 0.0
2017-Oct-08 22:30N 52°24' E 004°53'0 0.0
2017-Oct-08 22:00N 52°24' E 004°53'0 0.0
2017-Oct-08 21:30N 52°24' E 004°53'0 0.0
2017-Oct-08 21:00N 52°24' E 004°53'0 0.0
2017-Oct-08 20:30N 52°24' E 004°53'0 0.0
2017-Oct-08 20:00N 52°24' E 004°53'0 0.0
2017-Oct-08 19:30N 52°24' E 004°53'0 0.0
2017-Oct-08 19:00N 52°24' E 004°53'0 0.0
2017-Oct-08 18:30N 52°24' E 004°53'0 0.0
2017-Oct-08 18:00N 52°24' E 004°53'0 0.0
2017-Oct-08 17:30N 52°24' E 004°53'0 0.0
2017-Oct-08 17:00N 52°24' E 004°53'0 0.0
2017-Oct-08 16:30N 52°24' E 004°53'0 0.0
2017-Oct-08 16:00N 52°24' E 004°53'0 0.0
2017-Oct-08 15:30N 52°24' E 004°53'0 0.0
2017-Oct-08 15:00N 52°24' E 004°53'0 0.0
2017-Oct-08 14:30N 52°24' E 004°53'0 0.0
2017-Oct-08 14:00N 52°24' E 004°53'0 0.0
2017-Oct-08 13:30N 52°24' E 004°53'0 0.0
2017-Oct-08 13:00N 52°24' E 004°53'0 0.0
2017-Oct-08 12:30N 52°24' E 004°53'0 0.0
2017-Oct-08 12:00N 52°24' E 004°53'0 0.0
2017-Oct-08 11:30N 52°24' E 004°53'0 0.0
2017-Oct-08 11:00N 52°24' E 004°53'0 0.0
2017-Oct-08 10:30N 52°24' E 004°53'0 0.0
2017-Oct-08 10:00N 52°24' E 004°53'0 0.0
2017-Oct-08 09:30N 52°24' E 004°53'0 0.0
2017-Oct-08 09:00N 52°24' E 004°53'0 0.0
2017-Oct-08 08:30N 52°24' E 004°53'0 0.0
2017-Oct-08 08:00N 52°24' E 004°53'0 0.0
2017-Oct-08 07:30N 52°24' E 004°53'0 0.0
2017-Oct-08 07:00N 52°24' E 004°53'0 0.0
2017-Oct-08 06:30N 52°24' E 004°53'0 0.0
2017-Oct-08 06:00N 52°24' E 004°53'0 0.0
2017-Oct-08 05:30N 52°24' E 004°53'0 0.0
2017-Oct-08 05:00N 52°24' E 004°53'0 0.0
2017-Oct-08 04:30N 52°24' E 004°53'0 0.0
2017-Oct-08 04:00N 52°24' E 004°53'0 0.0
2017-Oct-08 03:30N 52°24' E 004°53'0 0.0
2017-Oct-08 03:00N 52°24' E 004°53'0 0.0
2017-Oct-08 02:30N 52°24' E 004°53'0 0.0
2017-Oct-08 02:00N 52°24' E 004°53'0 0.0
2017-Oct-08 01:30N 52°24' E 004°53'0 0.0
2017-Oct-08 01:00N 52°24' E 004°53'0 0.0
2017-Oct-08 00:30N 52°24' E 004°53'0 0.0
2017-Oct-08 00:00N 52°24' E 004°53'0 0.0
2017-Oct-07 23:30N 52°24' E 004°53'0 0.0
2017-Oct-07 23:00N 52°24' E 004°53'0 0.0
2017-Oct-07 22:30N 52°24' E 004°53'0 0.0
2017-Oct-07 22:00N 52°24' E 004°53'0 0.0
2017-Oct-07 21:30N 52°24' E 004°53'0 0.0
2017-Oct-07 21:00N 52°24' E 004°53'0 0.0
2017-Oct-07 20:30N 52°24' E 004°53'0 0.0
2017-Oct-07 20:00N 52°24' E 004°53'0 0.0
2017-Oct-07 19:30N 52°24' E 004°53'0 0.0
2017-Oct-07 19:00N 52°24' E 004°53'0 0.0
2017-Oct-07 18:30N 52°24' E 004°53'0 0.0
2017-Oct-07 18:00N 52°24' E 004°53'0 0.0
2017-Oct-07 17:30N 52°24' E 004°53'0 0.0
2017-Oct-07 17:00N 52°24' E 004°53'0 0.0
2017-Oct-07 16:30N 52°24' E 004°53'0 0.0
2017-Oct-07 16:00N 52°24' E 004°53'0 0.0
2017-Oct-07 15:30N 52°24' E 004°53'0 0.0
2017-Oct-07 15:00N 52°24' E 004°53'0 0.0
2017-Oct-07 14:30N 52°24' E 004°53'0 0.0
2017-Oct-07 14:00N 52°24' E 004°53'0 0.0
2017-Oct-07 13:30N 52°24' E 004°53'0 0.0
2017-Oct-07 13:00N 52°24' E 004°53'0 0.0
2017-Oct-07 12:30N 52°24' E 004°53'0 0.0
2017-Oct-07 12:00N 52°24' E 004°53'0 0.0
2017-Oct-07 11:30N 52°24' E 004°53'0 0.0
2017-Oct-07 11:00N 52°24' E 004°53'0 0.0
2017-Oct-07 10:30N 52°24' E 004°53'0 0.0
2017-Oct-07 10:00N 52°24' E 004°53'0 0.0
2017-Oct-07 09:30N 52°24' E 004°53'0 0.0
2017-Oct-07 09:00N 52°24' E 004°53'0 0.0
2017-Oct-07 08:30N 52°24' E 004°53'0 0.0
2017-Oct-07 08:00N 52°24' E 004°53'0 0.0
2017-Oct-07 07:30N 52°24' E 004°53'0 0.0
2017-Oct-07 07:00N 52°24' E 004°53'0 0.0
2017-Oct-07 06:30N 52°24' E 004°53'0 0.0
2017-Oct-07 06:00N 52°24' E 004°53'0 0.0
2017-Oct-07 05:30N 52°24' E 004°53'0 0.0
2017-Oct-07 05:00N 52°24' E 004°53'0 0.0
2017-Oct-07 04:30N 52°24' E 004°53'0 0.0
2017-Oct-07 04:00N 52°24' E 004°53'0 0.0
2017-Oct-07 03:30N 52°24' E 004°53'0 0.0
2017-Oct-07 03:00N 52°24' E 004°53'0 0.0
2017-Oct-07 02:30N 52°24' E 004°53'0 0.0
2017-Oct-07 02:00N 52°24' E 004°53'0 0.0
2017-Oct-07 01:30N 52°24' E 004°53'0 0.0
2017-Oct-07 01:00N 52°24' E 004°53'0 0.0
2017-Oct-07 00:30N 52°24' E 004°53'0 0.0
2017-Oct-07 00:00N 52°24' E 004°53'0 0.0
2017-Oct-06 23:30N 52°24' E 004°53'0 0.0
2017-Oct-06 23:00N 52°24' E 004°53'0 0.0
2017-Oct-06 22:30N 52°24' E 004°53'0 0.0
2017-Oct-06 22:00N 52°24' E 004°53'0 0.0
2017-Oct-06 21:30N 52°24' E 004°53'0 0.0
2017-Oct-06 21:00N 52°24' E 004°53'0 0.0
2017-Oct-06 20:30N 52°24' E 004°53'0 0.0
2017-Oct-06 20:00N 52°24' E 004°53'0 0.0
2017-Oct-06 19:30N 52°24' E 004°53'0 0.0
2017-Oct-06 19:00N 52°24' E 004°53'0 0.0
2017-Oct-06 18:30N 52°24' E 004°53'0 0.0
2017-Oct-06 18:00N 52°24' E 004°53'0 0.0
2017-Oct-06 17:30N 52°24' E 004°53'0 0.0
2017-Oct-06 17:00N 52°24' E 004°53'0 0.0
2017-Oct-06 16:30N 52°24' E 004°53'0 0.7
2017-Oct-06 16:01N 52°24' E 004°52'0 0.1
2017-Oct-06 15:30N 52°24' E 004°52'0 0.1
2017-Oct-06 15:00N 52°24' E 004°52'0 0.0
2017-Oct-06 14:31N 52°24' E 004°52'0 0.0
2017-Oct-06 13:59N 52°24' E 004°52'0 0.0
2017-Oct-06 13:31N 52°24' E 004°52'0 0.0
2017-Oct-06 13:00N 52°24' E 004°52'0 0.0
2017-Oct-06 12:31N 52°24' E 004°52'0 0.0
2017-Oct-06 12:00N 52°24' E 004°52'0 0.0
2017-Oct-06 11:30N 52°24' E 004°52'0 0.0
2017-Oct-06 11:00N 52°24' E 004°52'0 0.0
2017-Oct-06 10:30N 52°24' E 004°52'0 0.0
2017-Oct-06 10:00N 52°24' E 004°52'0 0.0
2017-Oct-06 09:31N 52°24' E 004°52'0 0.0
2017-Oct-06 09:01N 52°24' E 004°52'0 0.0
2017-Oct-06 08:31N 52°24' E 004°52'0 0.0
2017-Oct-06 08:00N 52°24' E 004°52'0 0.0
2017-Oct-06 07:31N 52°24' E 004°52'0 0.0
2017-Oct-06 07:01N 52°24' E 004°52'0 0.0
2017-Oct-06 06:30N 52°24' E 004°52'0 0.0
2017-Oct-06 06:01N 52°24' E 004°52'0 0.0
2017-Oct-06 05:30N 52°24' E 004°52'0 0.0
2017-Oct-06 05:01N 52°24' E 004°52'0 0.0
2017-Oct-06 04:31N 52°24' E 004°52'0 0.0
2017-Oct-06 04:00N 52°24' E 004°52'0 0.0
2017-Oct-06 03:31N 52°24' E 004°52'0 0.0
2017-Oct-06 03:01N 52°24' E 004°52'0 0.0
2017-Oct-06 02:29N 52°24' E 004°52'0 0.0
2017-Oct-06 02:01N 52°24' E 004°52'0 0.0
2017-Oct-06 01:30N 52°24' E 004°52'0 0.0
2017-Oct-06 01:00N 52°24' E 004°52'0 0.0
2017-Oct-06 00:30N 52°24' E 004°52'0 0.0
2017-Oct-06 00:00N 52°24' E 004°52'0 0.0
2017-Oct-05 23:30N 52°24' E 004°52'0 0.0
2017-Oct-05 23:00N 52°24' E 004°52'0 0.0
2017-Oct-05 22:30N 52°24' E 004°52'0 0.0
2017-Oct-05 22:01N 52°24' E 004°52'0 0.0
2017-Oct-05 21:30N 52°24' E 004°52'0 0.0
2017-Oct-05 21:00N 52°24' E 004°52'0 0.0
2017-Oct-05 20:31N 52°24' E 004°52'0 0.0
2017-Oct-05 20:01N 52°24' E 004°52'0 0.0
2017-Oct-05 19:31N 52°24' E 004°52'0 0.0
2017-Oct-05 19:01N 52°24' E 004°52'0 0.0
2017-Oct-05 18:31N 52°24' E 004°52'0 0.0
2017-Oct-05 18:00N 52°24' E 004°52'0 0.0
2017-Oct-05 17:30N 52°24' E 004°52'0 0.0
2017-Oct-05 16:59N 52°24' E 004°52'0 0.0
2017-Oct-05 15:30N 52°24' E 004°52'0 0.0
2017-Oct-05 15:01N 52°24' E 004°52'0 0.0
2017-Oct-05 14:31N 52°24' E 004°52'0 0.0
2017-Oct-05 14:01N 52°24' E 004°52'0 0.0
2017-Oct-05 13:31N 52°24' E 004°52'0 0.0
2017-Oct-05 13:01N 52°24' E 004°52'0 0.0
2017-Oct-05 12:30N 52°24' E 004°52'0 0.0
2017-Oct-05 12:00N 52°24' E 004°52'0 0.0
2017-Oct-05 11:31N 52°24' E 004°52'0 0.0
2017-Oct-05 11:01N 52°24' E 004°52'0 0.0
2017-Oct-05 10:30N 52°24' E 004°52'0 0.0
2017-Oct-05 10:00N 52°24' E 004°52'0 0.0
2017-Oct-05 09:31N 52°24' E 004°52'0 0.0
2017-Oct-05 09:00N 52°24' E 004°52'0 0.0
2017-Oct-05 08:31N 52°24' E 004°52'0 0.0
2017-Oct-05 08:00N 52°24' E 004°52'0 0.0
2017-Oct-05 07:31N 52°24' E 004°52'0 0.0
2017-Oct-05 07:01N 52°24' E 004°52'  
Track history (hours):
 
Tides and Currents Weather Stations Pressure Air Temp Water Temp Dewpoint Dewpoint Depression Visibility Wind Speed Wind Dir Waves Ship Positions

Aom Milena

Last reported at 2017-Oct-15 06:51 UTC. Time now 2017-Oct-19 11:26 UTC.
Position N 49°43' W 007°43'.

Length 218 m; draft 6.2 m.

Type: Cargo ship. MMSI: 353613000.

Date/timePositionNaut miles runAvg speedWind from/ knotsBaromVisibWave heightAir tempDewpointWater temp
2017-Oct-15 06:51N 49°43' W 007°43'912.4
2017-Oct-15 06:06N 49°43' W 007°29'112.3
2017-Oct-15 06:00N 49°43' W 007°27'612.3
2017-Oct-15 05:30N 49°43' W 007°18'612.0
2017-Oct-15 05:00N 49°43' W 007°09'612.0
2017-Oct-15 04:29N 49°43' W 006°59'612.0
2017-Oct-15 03:57N 49°43' W 006°49'511.7
2017-Oct-15 03:30N 49°43' W 006°41'611.8
2017-Oct-15 03:00N 49°43' W 006°32'611.5
2017-Oct-15 02:30N 49°43' W 006°23'611.3
2017-Oct-15 02:00N 49°43' W 006°14'611.2
2017-Oct-15 01:30N 49°43' W 006°05'611.3
2017-Oct-15 01:00N 49°44' W 005°57'611.3
2017-Oct-15 00:30N 49°45' W 005°48'611.7
2017-Oct-15 00:00N 49°46' W 005°39'611.7
2017-Oct-14 23:30N 49°47' W 005°30'611.7
2017-Oct-14 23:00N 49°48' W 005°22'612.1
2017-Oct-14 22:30N 49°49' W 005°12'612.3
2017-Oct-14 22:00N 49°51' W 005°03'612.5
2017-Oct-14 21:30N 49°52' W 004°54'612.8
2017-Oct-14 21:00N 49°53' W 004°44'713.1
2017-Oct-14 20:30N 49°55' W 004°34'713.2
2017-Oct-14 20:00N 49°56' W 004°24'713.4
2017-Oct-14 19:30N 49°58' W 004°14'713.4
2017-Oct-14 19:00N 49°59' W 004°04'713.5
2017-Oct-14 18:30N 50°00' W 003°53'713.3
2017-Oct-14 18:00N 50°02' W 003°43'713.0
2017-Oct-14 17:30N 50°03' W 003°33'612.8
2017-Oct-14 17:00N 50°04' W 003°24'612.4
2017-Oct-14 16:30N 50°06' W 003°14'612.1
2017-Oct-14 16:00N 50°07' W 003°05'611.8
2017-Oct-14 15:30N 50°08' W 002°56'611.7
2017-Oct-14 15:00N 50°09' W 002°47'611.6
2017-Oct-14 14:30N 50°11' W 002°38'611.6
2017-Oct-14 14:00N 50°12' W 002°29'611.7
2017-Oct-14 13:30N 50°13' W 002°21'611.9
2017-Oct-14 13:00N 50°15' W 002°12'812.2
2017-Oct-14 12:21N 50°16' W 001°59'412.7
2017-Oct-14 12:00N 50°17' W 001°52'713.1
2017-Oct-14 11:30N 50°18' W 001°42'713.6
2017-Oct-14 11:00N 50°20' W 001°32'714.1
2017-Oct-14 10:30N 50°21' W 001°21'714.5
2017-Oct-14 10:00N 50°23' W 001°10'714.6
2017-Oct-14 09:30N 50°24' W 000°59'714.6
2017-Oct-14 09:00N 50°26' W 000°48'714.3
2017-Oct-14 08:30N 50°27' W 000°37'714.1
2017-Oct-14 08:00N 50°29' W 000°26'713.8
2017-Oct-14 07:30N 50°30' W 000°15'713.6
2017-Oct-14 07:01N 50°32' W 000°05'713.2
2017-Oct-14 06:30N 50°33' E 000°05'713.2
2017-Oct-14 06:00N 50°34' E 000°15'612.8
2017-Oct-14 05:30N 50°36' E 000°25'612.5
2017-Oct-14 05:01N 50°37' E 000°35'612.2
2017-Oct-14 04:31N 50°41' E 000°43'612.4
2017-Oct-14 04:00N 50°44' E 000°51'612.6
2017-Oct-14 03:31N 50°48' E 000°58'713.0
2017-Oct-14 03:00N 50°52' E 001°06'713.5
2017-Oct-14 02:30N 50°57' E 001°15'714.4
2017-Oct-14 02:00N 51°02' E 001°23'714.8
2017-Oct-14 01:31N 51°06' E 001°32'714.6
2017-Oct-14 01:00N 51°11' E 001°40'713.8
2017-Oct-14 00:31N 51°17' E 001°47'713.3
2017-Oct-14 00:01N 51°22' E 001°52'612.7
2017-Oct-13 23:31N 51°28' E 001°58'612.3
2017-Oct-13 23:00N 51°33' E 002°04'611.9
2017-Oct-13 22:30N 51°37' E 002°10'611.7
2017-Oct-13 22:01N 51°42' E 002°16'611.4
2017-Oct-13 21:31N 51°46' E 002°22'611.1
2017-Oct-13 20:59N 51°50' E 002°29'610.8
2017-Oct-13 20:26N 51°54' E 002°36'510.7
2017-Oct-13 20:00N 51°58' E 002°40'510.6
2017-Oct-13 19:30N 52°02' E 002°46'610.8
2017-Oct-13 18:59N 52°06' E 002°52'610.8
2017-Oct-13 18:28N 52°10' E 002°58'611.1
2017-Oct-13 17:57N 52°15' E 003°04'511.6
2017-Oct-13 17:29N 52°19' E 003°09'611.9
2017-Oct-13 17:00N 52°24' E 003°14'711.3
2017-Oct-13 16:23N 52°29' E 003°22'512.3
2017-Oct-13 16:00N 52°30' E 003°30'712.3
2017-Oct-13 15:29N 52°31' E 003°41'612.3
2017-Oct-13 15:01N 52°31' E 003°50'612.4
2017-Oct-13 14:30N 52°31' E 004°00'612.2
2017-Oct-13 14:01N 52°31' E 004°10'612.3
2017-Oct-13 13:31N 52°30' E 004°20'5 9.1
2017-Oct-13 13:01N 52°28' E 004°27'4 8.5
2017-Oct-13 12:31N 52°28' E 004°34'2 3.2
2017-Oct-13 12:01N 52°28' E 004°37'1 2.1
2017-Oct-13 11:30N 52°28' E 004°38'3 6.5
2017-Oct-13 11:00N 52°26' E 004°43'3 6.5
2017-Oct-13 10:30N 52°25' E 004°48'3 5.9
2017-Oct-13 10:00N 52°24' E 004°53'0 0.5
2017-Oct-13 09:30N 52°24' E 004°53'0 0.0
2017-Oct-13 09:00N 52°24' E 004°53'0 0.0
2017-Oct-13 08:30N 52°24' E 004°53'0 0.0
2017-Oct-13 08:00N 52°24' E 004°53'0 0.0
2017-Oct-13 07:30N 52°24' E 004°53'0 0.0
2017-Oct-13 07:00N 52°24' E 004°53'0 0.0
2017-Oct-13 06:30N 52°24' E 004°53'0 0.0
2017-Oct-13 06:00N 52°24' E 004°53'0 0.0
2017-Oct-13 05:30N 52°24' E 004°53'0 0.0
2017-Oct-13 05:00N 52°24' E 004°53'0 0.0
2017-Oct-13 04:30N 52°24' E 004°53'0 0.0
2017-Oct-13 04:00N 52°24' E 004°53'0 0.0
2017-Oct-13 03:30N 52°24' E 004°53'0 0.0
2017-Oct-13 03:00N 52°24' E 004°53'0 0.0
2017-Oct-13 02:30N 52°24' E 004°53'0 0.0
2017-Oct-13 02:00N 52°24' E 004°53'0 0.0
2017-Oct-13 01:30N 52°24' E 004°53'0 0.0
2017-Oct-13 01:00N 52°24' E 004°53'0 0.0
2017-Oct-13 00:30N 52°24' E 004°53'0 0.0
2017-Oct-13 00:00N 52°24' E 004°53'0 0.0
2017-Oct-12 23:30N 52°24' E 004°53'0 0.0
2017-Oct-12 23:00N 52°24' E 004°53'0 0.0
2017-Oct-12 22:30N 52°24' E 004°53'0 0.0
2017-Oct-12 22:00N 52°24' E 004°53'0 0.0
2017-Oct-12 21:30N 52°24' E 004°53'0 0.0
2017-Oct-12 21:00N 52°24' E 004°53'0 0.0
2017-Oct-12 20:30N 52°24' E 004°53'0 0.0
2017-Oct-12 20:00N 52°24' E 004°53'0 0.0
2017-Oct-12 19:30N 52°24' E 004°53'0 0.0
2017-Oct-12 19:00N 52°24' E 004°53'0 0.0
2017-Oct-12 18:30N 52°24' E 004°53'0 0.0
2017-Oct-12 17:30N 52°24' E 004°53'0 0.0
2017-Oct-12 17:00N 52°24' E 004°53'0 0.0
2017-Oct-12 16:30N 52°24' E 004°53'0 0.0
2017-Oct-12 16:00N 52°24' E 004°53'0 0.0
2017-Oct-12 15:30N 52°24' E 004°53'0 0.0
2017-Oct-12 15:00N 52°24' E 004°53'0 0.0
2017-Oct-12 14:30N 52°24' E 004°53'0 0.0
2017-Oct-12 14:00N 52°24' E 004°53'0 0.0
2017-Oct-12 13:30N 52°24' E 004°53'0 0.0
2017-Oct-12 13:00N 52°24' E 004°53'0 0.0
2017-Oct-12 12:30N 52°24' E 004°53'0 0.0
2017-Oct-12 12:00N 52°24' E 004°53'0 0.0
2017-Oct-12 11:30N 52°24' E 004°53'0 0.0
2017-Oct-12 11:00N 52°24' E 004°53'0 0.0
2017-Oct-12 10:30N 52°24' E 004°53'0 0.0
2017-Oct-12 10:00N 52°24' E 004°53'0 0.0
2017-Oct-12 09:30N 52°24' E 004°53'0 0.0
2017-Oct-12 09:00N 52°24' E 004°53'0 0.0
2017-Oct-12 08:27N 52°24' E 004°53'0 0.0
2017-Oct-12 08:00N 52°24' E 004°53'0 0.0
2017-Oct-12 07:30N 52°24' E 004°53'0 0.0
2017-Oct-12 07:00N 52°24' E 004°53'0 0.0
2017-Oct-12 06:30N 52°24' E 004°53'0 0.0
2017-Oct-12 06:00N 52°24' E 004°53'0 0.0
2017-Oct-12 05:30N 52°24' E 004°53'0 0.0
2017-Oct-12 05:00N 52°24' E 004°53'0 0.0
2017-Oct-12 04:00N 52°24' E 004°53'0 0.0
2017-Oct-12 03:30N 52°24' E 004°53'0 0.0
2017-Oct-12 03:00N 52°24' E 004°53'0 0.0
2017-Oct-12 02:30N 52°24' E 004°53'0 0.0
2017-Oct-12 02:00N 52°24' E 004°53'0 0.0
2017-Oct-12 01:30N 52°24' E 004°53'0 0.0
2017-Oct-12 01:00N 52°24' E 004°53'0 0.0
2017-Oct-12 00:30N 52°24' E 004°53'0 0.0
2017-Oct-12 00:00N 52°24' E 004°53'0 0.0
2017-Oct-11 23:30N 52°24' E 004°53'0 0.0
2017-Oct-11 23:00N 52°24' E 004°53'0 0.0
2017-Oct-11 22:30N 52°24' E 004°53'0 0.0
2017-Oct-11 22:00N 52°24' E 004°53'0 0.0
2017-Oct-11 21:30N 52°24' E 004°53'0 0.0
2017-Oct-11 21:00N 52°24' E 004°53'0 0.0
2017-Oct-11 20:30N 52°24' E 004°53'0 0.0
2017-Oct-11 20:00N 52°24' E 004°53'0 0.0
2017-Oct-11 19:30N 52°24' E 004°53'0 0.0
2017-Oct-11 19:00N 52°24' E 004°53'0 0.0
2017-Oct-11 18:30N 52°24' E 004°53'0 0.0
2017-Oct-11 18:00N 52°24' E 004°53'0 0.0
2017-Oct-11 17:30N 52°24' E 004°53'0 0.0
2017-Oct-11 17:00N 52°24' E 004°53'0 0.0
2017-Oct-11 00:00N 52°24' E 004°53'0 0.0
2017-Oct-10 23:30N 52°24' E 004°53'0 0.0
2017-Oct-10 23:00N 52°24' E 004°53'0 0.0
2017-Oct-10 22:30N 52°24' E 004°53'0 0.0
2017-Oct-10 22:00N 52°24' E 004°53'0 0.0
2017-Oct-10 21:30N 52°24' E 004°53'0 0.0
2017-Oct-10 21:00N 52°24' E 004°53'0 0.0
2017-Oct-10 20:30N 52°24' E 004°53'0 0.0
2017-Oct-10 20:00N 52°24' E 004°53'0 0.0
2017-Oct-10 19:30N 52°24' E 004°53'0 0.0
2017-Oct-10 19:00N 52°24' E 004°53'0 0.0
2017-Oct-10 18:30N 52°24' E 004°53'0 0.0
2017-Oct-10 18:00N 52°24' E 004°53'0 0.0
2017-Oct-10 17:30N 52°24' E 004°53'0 0.0
2017-Oct-10 17:00N 52°24' E 004°53'0 0.0
2017-Oct-10 16:30N 52°24' E 004°53'0 0.0
2017-Oct-10 16:00N 52°24' E 004°53'0 0.0
2017-Oct-10 15:30N 52°24' E 004°53'0 0.0
2017-Oct-10 15:00N 52°24' E 004°53'0 0.0
2017-Oct-10 14:00N 52°24' E 004°53'0 0.0
2017-Oct-10 13:30N 52°24' E 004°53'0 0.0
2017-Oct-10 13:00N 52°24' E 004°53'0 0.0
2017-Oct-10 12:30N 52°24' E 004°53'0 0.0
2017-Oct-10 12:00N 52°24' E 004°53'0 0.0
2017-Oct-10 11:30N 52°24' E 004°53'0 0.0
2017-Oct-10 11:00N 52°24' E 004°53'0 0.0
2017-Oct-10 10:30N 52°24' E 004°53'0 0.0
2017-Oct-10 10:00N 52°24' E 004°53'0 0.0
2017-Oct-10 09:30N 52°24' E 004°53'0 0.0
2017-Oct-10 09:00N 52°24' E 004°53'0 0.0
2017-Oct-10 08:30N 52°24' E 004°53'0 0.0
2017-Oct-10 08:00N 52°24' E 004°53'0 0.0
2017-Oct-10 07:30N 52°24' E 004°53'0 0.0
2017-Oct-10 07:00N 52°24' E 004°53'0 0.0
2017-Oct-10 06:30N 52°24' E 004°53'0 0.0
2017-Oct-10 06:00N 52°24' E 004°53'0 0.0
2017-Oct-10 05:30N 52°24' E 004°53'0 0.0
2017-Oct-10 05:00N 52°24' E 004°53'0 0.0
2017-Oct-10 04:30N 52°24' E 004°53'0 0.0
2017-Oct-10 04:00N 52°24' E 004°53'0 0.0
2017-Oct-10 03:30N 52°24' E 004°53'0 0.0
2017-Oct-10 03:00N 52°24' E 004°53'0 0.0
2017-Oct-10 02:30N 52°24' E 004°53'0 0.0
2017-Oct-10 02:00N 52°24' E 004°53'0 0.0
2017-Oct-10 01:30N 52°24' E 004°53'0 0.0
2017-Oct-10 01:00N 52°24' E 004°53'0 0.0
2017-Oct-10 00:30N 52°24' E 004°53'0 0.0
2017-Oct-10 00:00N 52°24' E 004°53'0 0.0
2017-Oct-09 23:30N 52°24' E 004°53'0 0.0
2017-Oct-09 23:00N 52°24' E 004°53'0 0.0
2017-Oct-09 22:30N 52°24' E 004°53'0 0.0
2017-Oct-09 22:00N 52°24' E 004°53'0 0.0
2017-Oct-09 21:00N 52°24' E 004°53'0 0.0
2017-Oct-09 20:30N 52°24' E 004°53'0 0.0
2017-Oct-09 20:00N 52°24' E 004°53'0 0.0
2017-Oct-09 19:30N 52°24' E 004°53'0 0.0
2017-Oct-09 19:00N 52°24' E 004°53'0 0.0
2017-Oct-09 18:30N 52°24' E 004°53'0 0.0
2017-Oct-09 18:00N 52°24' E 004°53'0 0.0
2017-Oct-09 17:30N 52°24' E 004°53'0 0.0
2017-Oct-09 17:00N 52°24' E 004°53'0 0.0
2017-Oct-09 16:30N 52°24' E 004°53'0 0.0
2017-Oct-09 16:00N 52°24' E 004°53'0 0.0
2017-Oct-09 15:30N 52°24' E 004°53'0 0.0
2017-Oct-09 15:00N 52°24' E 004°53'0 0.0
2017-Oct-09 14:30N 52°24' E 004°53'0 0.0
2017-Oct-09 14:00N 52°24' E 004°53'0 0.0
2017-Oct-09 13:30N 52°24' E 004°53'0 0.0
2017-Oct-09 13:00N 52°24' E 004°53'0 0.0
2017-Oct-09 12:30N 52°24' E 004°53'0 0.0
2017-Oct-09 12:00N 52°24' E 004°53'0 0.0
2017-Oct-09 11:30N 52°24' E 004°53'0 0.0
2017-Oct-09 10:57N 52°24' E 004°53'0 0.0
2017-Oct-09 10:30N 52°24' E 004°53'0 0.0
2017-Oct-09 10:00N 52°24' E 004°53'0 0.0
2017-Oct-09 09:30N 52°24' E 004°53'0 0.0
2017-Oct-09 09:00N 52°24' E 004°53'0 0.0
2017-Oct-09 08:30N 52°24' E 004°53'0 0.0
2017-Oct-09 08:00N 52°24' E 004°53'0 0.0
2017-Oct-09 07:30N 52°24' E 004°53'0 0.0
2017-Oct-09 07:00N 52°24' E 004°53'0 0.0
2017-Oct-09 06:30N 52°24' E 004°53'0 0.0
2017-Oct-09 06:00N 52°24' E 004°53'0 0.0
2017-Oct-09 05:30N 52°24' E 004°53'0 0.0
2017-Oct-09 05:00N 52°24' E 004°53'0 0.0
2017-Oct-09 04:30N 52°24' E 004°53'0 0.0
2017-Oct-09 04:00N 52°24' E 004°53'0 0.0
2017-Oct-09 03:30N 52°24' E 004°53'0 0.0
2017-Oct-09 03:00N 52°24' E 004°53'0 0.0
2017-Oct-09 02:30N 52°24' E 004°53'0 0.0
2017-Oct-09 02:00N 52°24' E 004°53'0 0.0
2017-Oct-09 01:30N 52°24' E 004°53'0 0.0
2017-Oct-09 01:00N 52°24' E 004°53'0 0.0
2017-Oct-09 00:30N 52°24' E 004°53'0 0.0
2017-Oct-09 00:00N 52°24' E 004°53'0 0.0
2017-Oct-08 23:30N 52°24' E 004°53'0 0.0
2017-Oct-08 23:00N 52°24' E 004°53'0 0.0
2017-Oct-08 22:30N 52°24' E 004°53'0 0.0
2017-Oct-08 22:00N 52°24' E 004°53'0 0.0
2017-Oct-08 21:30N 52°24' E 004°53'0 0.0
2017-Oct-08 21:00N 52°24' E 004°53'0 0.0
2017-Oct-08 20:30N 52°24' E 004°53'0 0.0
2017-Oct-08 20:00N 52°24' E 004°53'0 0.0
2017-Oct-08 19:30N 52°24' E 004°53'0 0.0
2017-Oct-08 19:00N 52°24' E 004°53'0 0.0
2017-Oct-08 18:30N 52°24' E 004°53'0 0.0
2017-Oct-08 18:00N 52°24' E 004°53'0 0.0
2017-Oct-08 17:30N 52°24' E 004°53'0 0.0
2017-Oct-08 17:00N 52°24' E 004°53'0 0.0
2017-Oct-08 16:30N 52°24' E 004°53'0 0.0
2017-Oct-08 16:00N 52°24' E 004°53'0 0.0
2017-Oct-08 15:30N 52°24' E 004°53'0 0.0
2017-Oct-08 15:00N 52°24' E 004°53'0 0.0
2017-Oct-08 14:30N 52°24' E 004°53'0 0.0
2017-Oct-08 14:00N 52°24' E 004°53'0 0.0
2017-Oct-08 13:30N 52°24' E 004°53'0 0.0
2017-Oct-08 13:00N 52°24' E 004°53'0 0.0
2017-Oct-08 12:30N 52°24' E 004°53'0 0.0
2017-Oct-08 12:00N 52°24' E 004°53'0 0.0
2017-Oct-08 11:30N 52°24' E 004°53'0 0.0
2017-Oct-08 11:00N 52°24' E 004°53'0 0.0
2017-Oct-08 10:30N 52°24' E 004°53'0 0.0
2017-Oct-08 10:00N 52°24' E 004°53'0 0.0
2017-Oct-08 09:30N 52°24' E 004°53'0 0.0
2017-Oct-08 09:00N 52°24' E 004°53'0 0.0
2017-Oct-08 08:30N 52°24' E 004°53'0 0.0
2017-Oct-08 08:00N 52°24' E 004°53'0 0.0
2017-Oct-08 07:30N 52°24' E 004°53'0 0.0
2017-Oct-08 07:00N 52°24' E 004°53'0 0.0
2017-Oct-08 06:30N 52°24' E 004°53'0 0.0
2017-Oct-08 06:00N 52°24' E 004°53'0 0.0
2017-Oct-08 05:30N 52°24' E 004°53'0 0.0
2017-Oct-08 05:00N 52°24' E 004°53'0 0.0
2017-Oct-08 04:30N 52°24' E 004°53'0 0.0
2017-Oct-08 04:00N 52°24' E 004°53'0 0.0
2017-Oct-08 03:30N 52°24' E 004°53'0 0.0
2017-Oct-08 03:00N 52°24' E 004°53'0 0.0
2017-Oct-08 02:30N 52°24' E 004°53'0 0.0
2017-Oct-08 02:00N 52°24' E 004°53'0 0.0
2017-Oct-08 01:30N 52°24' E 004°53'0 0.0
2017-Oct-08 01:00N 52°24' E 004°53'0 0.0
2017-Oct-08 00:30N 52°24' E 004°53'0 0.0
2017-Oct-08 00:00N 52°24' E 004°53'0 0.0
2017-Oct-07 23:30N 52°24' E 004°53'0 0.0
2017-Oct-07 23:00N 52°24' E 004°53'0 0.0
2017-Oct-07 22:30N 52°24' E 004°53'0 0.0
2017-Oct-07 22:00N 52°24' E 004°53'0 0.0
2017-Oct-07 21:30N 52°24' E 004°53'0 0.0
2017-Oct-07 21:00N 52°24' E 004°53'0 0.0
2017-Oct-07 20:30N 52°24' E 004°53'0 0.0
2017-Oct-07 20:00N 52°24' E 004°53'0 0.0
2017-Oct-07 19:30N 52°24' E 004°53'0 0.0
2017-Oct-07 19:00N 52°24' E 004°53'0 0.0
2017-Oct-07 18:30N 52°24' E 004°53'0 0.0
2017-Oct-07 18:00N 52°24' E 004°53'0 0.0
2017-Oct-07 17:30N 52°24' E 004°53'0 0.0
2017-Oct-07 17:00N 52°24' E 004°53'0 0.0
2017-Oct-07 16:30N 52°24' E 004°53'0 0.0
2017-Oct-07 16:00N 52°24' E 004°53'0 0.0
2017-Oct-07 15:30N 52°24' E 004°53'0 0.0
2017-Oct-07 15:00N 52°24' E 004°53'0 0.0
2017-Oct-07 14:30N 52°24' E 004°53'0 0.0
2017-Oct-07 14:00N 52°24' E 004°53'0 0.0
2017-Oct-07 13:30N 52°24' E 004°53'0 0.0
2017-Oct-07 13:00N 52°24' E 004°53'0 0.0
2017-Oct-07 12:30N 52°24' E 004°53'0 0.0
2017-Oct-07 12:00N 52°24' E 004°53'0 0.0
2017-Oct-07 11:30N 52°24' E 004°53'0 0.0
2017-Oct-07 11:00N 52°24' E 004°53'0 0.0
2017-Oct-07 10:30N 52°24' E 004°53'0 0.0
2017-Oct-07 10:00N 52°24' E 004°53'0 0.0
2017-Oct-07 09:30N 52°24' E 004°53'0 0.0
2017-Oct-07 09:00N 52°24' E 004°53'0 0.0
2017-Oct-07 08:30N 52°24' E 004°53'0 0.0
2017-Oct-07 08:00N 52°24' E 004°53'0 0.0
2017-Oct-07 07:30N 52°24' E 004°53'0 0.0
2017-Oct-07 07:00N 52°24' E 004°53'0 0.0
2017-Oct-07 06:30N 52°24' E 004°53'0 0.0
2017-Oct-07 06:00N 52°24' E 004°53'0 0.0
2017-Oct-07 05:30N 52°24' E 004°53'0 0.0
2017-Oct-07 05:00N 52°24' E 004°53'0 0.0
2017-Oct-07 04:30N 52°24' E 004°53'0 0.0
2017-Oct-07 04:00N 52°24' E 004°53'0 0.0
2017-Oct-07 03:30N 52°24' E 004°53'0 0.0
2017-Oct-07 03:00N 52°24' E 004°53'0 0.0
2017-Oct-07 02:30N 52°24' E 004°53'0 0.0
2017-Oct-07 02:00N 52°24' E 004°53'0 0.0
2017-Oct-07 01:30N 52°24' E 004°53'0 0.0
2017-Oct-07 01:00N 52°24' E 004°53'0 0.0
2017-Oct-07 00:30N 52°24' E 004°53'0 0.0
2017-Oct-07 00:00N 52°24' E 004°53'0 0.0
2017-Oct-06 23:30N 52°24' E 004°53'0 0.0
2017-Oct-06 23:00N 52°24' E 004°53'0 0.0
2017-Oct-06 22:30N 52°24' E 004°53'0 0.0
2017-Oct-06 22:00N 52°24' E 004°53'0 0.0
2017-Oct-06 21:30N 52°24' E 004°53'0 0.0
2017-Oct-06 21:00N 52°24' E 004°53'0 0.0
2017-Oct-06 20:30N 52°24' E 004°53'0 0.0
2017-Oct-06 20:00N 52°24' E 004°53'0 0.0
2017-Oct-06 19:30N 52°24' E 004°53'0 0.0
2017-Oct-06 19:00N 52°24' E 004°53'0 0.0
2017-Oct-06 18:30N 52°24' E 004°53'0 0.0
2017-Oct-06 18:00N 52°24' E 004°53'0 0.0
2017-Oct-06 17:30N 52°24' E 004°53'0 0.0
2017-Oct-06 17:00N 52°24' E 004°53'0 0.0
2017-Oct-06 16:30N 52°24' E 004°53'0 0.7
2017-Oct-06 16:01N 52°24' E 004°52'0 0.1
2017-Oct-06 15:30N 52°24' E 004°52'0 0.1
2017-Oct-06 15:00N 52°24' E 004°52'0 0.0
2017-Oct-06 14:31N 52°24' E 004°52'0 0.0
2017-Oct-06 13:59N 52°24' E 004°52'0 0.0
2017-Oct-06 13:31N 52°24' E 004°52'0 0.0
2017-Oct-06 13:00N 52°24' E 004°52'0 0.0
2017-Oct-06 12:31N 52°24' E 004°52'0 0.0
2017-Oct-06 12:00N 52°24' E 004°52'0 0.0
2017-Oct-06 11:30N 52°24' E 004°52'0 0.0
2017-Oct-06 11:00N 52°24' E 004°52'0 0.0
2017-Oct-06 10:30N 52°24' E 004°52'0 0.0
2017-Oct-06 10:00N 52°24' E 004°52'0 0.0
2017-Oct-06 09:31N 52°24' E 004°52'0 0.0
2017-Oct-06 09:01N 52°24' E 004°52'0 0.0
2017-Oct-06 08:31N 52°24' E 004°52'0 0.0
2017-Oct-06 08:00N 52°24' E 004°52'0 0.0
2017-Oct-06 07:31N 52°24' E 004°52'0 0.0
2017-Oct-06 07:01N 52°24' E 004°52'0 0.0
2017-Oct-06 06:30N 52°24' E 004°52'0 0.0
2017-Oct-06 06:01N 52°24' E 004°52'0 0.0
2017-Oct-06 05:30N 52°24' E 004°52'0 0.0
2017-Oct-06 05:01N 52°24' E 004°52'0 0.0
2017-Oct-06 04:31N 52°24' E 004°52'0 0.0
2017-Oct-06 04:00N 52°24' E 004°52'0 0.0
2017-Oct-06 03:31N 52°24' E 004°52'0 0.0
2017-Oct-06 03:01N 52°24' E 004°52'0 0.0
2017-Oct-06 02:29N 52°24' E 004°52'0 0.0
2017-Oct-06 02:01N 52°24' E 004°52'0 0.0
2017-Oct-06 01:30N 52°24' E 004°52'0 0.0
2017-Oct-06 01:00N 52°24' E 004°52'0 0.0
2017-Oct-06 00:30N 52°24' E 004°52'0 0.0
2017-Oct-06 00:00N 52°24' E 004°52'0 0.0
2017-Oct-05 23:30N 52°24' E 004°52'0 0.0
2017-Oct-05 23:00N 52°24' E 004°52'0 0.0
2017-Oct-05 22:30N 52°24' E 004°52'0 0.0
2017-Oct-05 22:01N 52°24' E 004°52'0 0.0
2017-Oct-05 21:30N 52°24' E 004°52'0 0.0
2017-Oct-05 21:00N 52°24' E 004°52'0 0.0
2017-Oct-05 20:31N 52°24' E 004°52'0 0.0
2017-Oct-05 20:01N 52°24' E 004°52'0 0.0
2017-Oct-05 19:31N 52°24' E 004°52'0 0.0
2017-Oct-05 19:01N 52°24' E 004°52'0 0.0
2017-Oct-05 18:31N 52°24' E 004°52'0 0.0
2017-Oct-05 18:00N 52°24' E 004°52'0 0.0
2017-Oct-05 17:30N 52°24' E 004°52'0 0.0
2017-Oct-05 16:59N 52°24' E 004°52'0 0.0
2017-Oct-05 15:30N 52°24' E 004°52'0 0.0
2017-Oct-05 15:01N 52°24' E 004°52'0 0.0
2017-Oct-05 14:31N 52°24' E 004°52'0 0.0
2017-Oct-05 14:01N 52°24' E 004°52'0 0.0
2017-Oct-05 13:31N 52°24' E 004°52'0 0.0
2017-Oct-05 13:01N 52°24' E 004°52'0 0.0
2017-Oct-05 12:30N 52°24' E 004°52'0 0.0
2017-Oct-05 12:00N 52°24' E 004°52'0 0.0
2017-Oct-05 11:31N 52°24' E 004°52'0 0.0
2017-Oct-05 11:01N 52°24' E 004°52'0 0.0
2017-Oct-05 10:30N 52°24' E 004°52'0 0.0
2017-Oct-05 10:00N 52°24' E 004°52'0 0.0
2017-Oct-05 09:31N 52°24' E 004°52'0 0.0
2017-Oct-05 09:00N 52°24' E 004°52'0 0.0
2017-Oct-05 08:31N 52°24' E 004°52'0 0.0
2017-Oct-05 08:00N 52°24' E 004°52'0 0.0
2017-Oct-05 07:31N 52°24' E 004°52'0 0.0
2017-Oct-05 07:01N 52°24' E 004°52'  

Dump ship's entire track history